sensor_id;sensor_type;location;lat;lon;timestamp;temperature;humidity
16901;DHT22;8567;52.540;6.434;2024-03-02T00:00:49;19.30;48.40
16901;DHT22;8567;52.540;6.434;2024-03-02T00:03:16;19.30;48.50
16901;DHT22;8567;52.540;6.434;2024-03-02T00:05:43;19.30;48.60
16901;DHT22;8567;52.540;6.434;2024-03-02T00:08:13;19.30;48.10
16901;DHT22;8567;52.540;6.434;2024-03-02T00:10:43;19.20;48.10
16901;DHT22;8567;52.540;6.434;2024-03-02T00:13:10;19.20;48.10
16901;DHT22;8567;52.540;6.434;2024-03-02T00:15:44;19.20;48.20
16901;DHT22;8567;52.540;6.434;2024-03-02T00:18:13;19.20;48.20
16901;DHT22;8567;52.540;6.434;2024-03-02T00:20:41;19.20;48.20
16901;DHT22;8567;52.540;6.434;2024-03-02T00:23:09;19.20;48.30
16901;DHT22;8567;52.540;6.434;2024-03-02T00:25:41;19.20;48.30
16901;DHT22;8567;52.540;6.434;2024-03-02T00:28:17;19.20;48.40
16901;DHT22;8567;52.540;6.434;2024-03-02T00:30:55;19.20;48.40
16901;DHT22;8567;52.540;6.434;2024-03-02T00:33:23;19.30;48.50
16901;DHT22;8567;52.540;6.434;2024-03-02T00:35:50;19.20;48.50
16901;DHT22;8567;52.540;6.434;2024-03-02T00:38:17;19.20;48.70
16901;DHT22;8567;52.540;6.434;2024-03-02T00:40:46;19.20;48.70
16901;DHT22;8567;52.540;6.434;2024-03-02T00:43:37;19.20;48.80
16901;DHT22;8567;52.540;6.434;2024-03-02T00:46:05;19.20;48.80
16901;DHT22;8567;52.540;6.434;2024-03-02T00:48:33;19.20;48.90
16901;DHT22;8567;52.540;6.434;2024-03-02T00:51:01;19.20;49.00
16901;DHT22;8567;52.540;6.434;2024-03-02T00:53:30;19.20;49.00
16901;DHT22;8567;52.540;6.434;2024-03-02T00:55:59;19.30;49.20
16901;DHT22;8567;52.540;6.434;2024-03-02T00:58:26;19.20;49.20
16901;DHT22;8567;52.540;6.434;2024-03-02T01:00:52;19.20;49.30
16901;DHT22;8567;52.540;6.434;2024-03-02T01:03:19;19.20;49.40
16901;DHT22;8567;52.540;6.434;2024-03-02T01:05:46;19.20;49.40
16901;DHT22;8567;52.540;6.434;2024-03-02T01:08:13;19.20;49.50
16901;DHT22;8567;52.540;6.434;2024-03-02T01:10:40;19.20;49.50
16901;DHT22;8567;52.540;6.434;2024-03-02T01:13:08;19.20;49.60
16901;DHT22;8567;52.540;6.434;2024-03-02T01:15:35;19.20;49.60
16901;DHT22;8567;52.540;6.434;2024-03-02T01:18:02;19.20;49.70
16901;DHT22;8567;52.540;6.434;2024-03-02T01:20:29;19.20;49.70
16901;DHT22;8567;52.540;6.434;2024-03-02T01:22:56;19.20;49.80
16901;DHT22;8567;52.540;6.434;2024-03-02T01:25:23;19.20;49.80
16901;DHT22;8567;52.540;6.434;2024-03-02T01:27:50;19.20;49.80
16901;DHT22;8567;52.540;6.434;2024-03-02T01:30:18;19.20;49.80
16901;DHT22;8567;52.540;6.434;2024-03-02T01:32:45;19.20;49.90
16901;DHT22;8567;52.540;6.434;2024-03-02T01:35:14;19.20;49.90
16901;DHT22;8567;52.540;6.434;2024-03-02T01:37:41;19.20;50.00
16901;DHT22;8567;52.540;6.434;2024-03-02T01:40:09;19.30;50.00
16901;DHT22;8567;52.540;6.434;2024-03-02T01:42:37;19.20;50.10
16901;DHT22;8567;52.540;6.434;2024-03-02T01:45:04;19.20;50.10
16901;DHT22;8567;52.540;6.434;2024-03-02T01:47:33;19.20;50.10
16901;DHT22;8567;52.540;6.434;2024-03-02T01:50:00;19.30;50.10
16901;DHT22;8567;52.540;6.434;2024-03-02T01:52:27;19.20;50.10
16901;DHT22;8567;52.540;6.434;2024-03-02T01:54:54;19.20;50.20
16901;DHT22;8567;52.540;6.434;2024-03-02T01:57:21;19.20;50.20
16901;DHT22;8567;52.540;6.434;2024-03-02T01:59:48;19.20;50.30
16901;DHT22;8567;52.540;6.434;2024-03-02T02:02:16;19.20;50.30
16901;DHT22;8567;52.540;6.434;2024-03-02T02:04:44;19.20;50.30
16901;DHT22;8567;52.540;6.434;2024-03-02T02:07:11;19.20;50.40
16901;DHT22;8567;52.540;6.434;2024-03-02T02:09:39;19.20;50.50
16901;DHT22;8567;52.540;6.434;2024-03-02T02:12:07;19.20;50.40
16901;DHT22;8567;52.540;6.434;2024-03-02T02:14:33;19.20;50.40
16901;DHT22;8567;52.540;6.434;2024-03-02T02:17:00;19.20;50.50
16901;DHT22;8567;52.540;6.434;2024-03-02T02:19:27;19.20;50.50
16901;DHT22;8567;52.540;6.434;2024-03-02T02:21:55;19.20;50.50
16901;DHT22;8567;52.540;6.434;2024-03-02T02:24:22;19.20;50.50
16901;DHT22;8567;52.540;6.434;2024-03-02T02:26:49;19.20;50.50
16901;DHT22;8567;52.540;6.434;2024-03-02T02:29:15;19.20;50.50
16901;DHT22;8567;52.540;6.434;2024-03-02T02:31:43;19.20;50.60
16901;DHT22;8567;52.540;6.434;2024-03-02T02:34:09;19.20;50.60
16901;DHT22;8567;52.540;6.434;2024-03-02T02:36:38;19.20;50.60
16901;DHT22;8567;52.540;6.434;2024-03-02T02:39:09;19.20;50.60
16901;DHT22;8567;52.540;6.434;2024-03-02T02:41:37;19.20;50.60
16901;DHT22;8567;52.540;6.434;2024-03-02T02:44:04;19.20;50.70
16901;DHT22;8567;52.540;6.434;2024-03-02T02:46:31;19.20;50.60
16901;DHT22;8567;52.540;6.434;2024-03-02T02:48:58;19.20;50.60
16901;DHT22;8567;52.540;6.434;2024-03-02T02:51:24;19.20;50.60
16901;DHT22;8567;52.540;6.434;2024-03-02T02:53:52;19.20;50.60
16901;DHT22;8567;52.540;6.434;2024-03-02T02:56:20;19.20;50.70
16901;DHT22;8567;52.540;6.434;2024-03-02T02:58:46;19.20;50.70
16901;DHT22;8567;52.540;6.434;2024-03-02T03:01:14;19.20;50.60
16901;DHT22;8567;52.540;6.434;2024-03-02T03:03:42;19.20;50.60
16901;DHT22;8567;52.540;6.434;2024-03-02T03:06:09;19.20;50.70
16901;DHT22;8567;52.540;6.434;2024-03-02T03:08:36;19.20;50.70
